x

Cape Elizabeth- 45nm Nw Of Aberdeen, Wa (46041) Wave Buoy

8:50 - Sat 23rd Jul 2016 All times are PDT. -7 hours from GMT.

  • Sig Wave height 2.6ft
  • Swell Direction
  • Peak Period 8s
  • Average Period 5s
  • Wind
    13mph, 16mph gusts
  • Sea Temp 62°f
  • Air Temp 61°f
  • Sea Pressure 1023.7mb
  • Cape Elizabeth- 45nm Nw Of Aberdeen, Wa
  • Cape Elizabeth- 45nm Nw Of Aberdeen, Wa

More Historic Weather Station data

Upgrade to MSW Pro to gain access to the past 30 days of data for over 8000 Wavebouys and Weather Stations around the globe.

Join Pro

Comparision Forecast

View Surf forecast
   
sam. 07/23 8:50 2.5ft 8s 5s 13 16 mph 1023.7mb 62f 61f
7:50 3ft 8s 5s 13 16 mph 1023.8mb 62f 62f
6:50 2.5ft 8s 5s 13 16 mph 1024.2mb 62f 61f
5:50 3ft 8s 6s 11 13 mph 1024.5mb 62f 61f
4:50 3ft 8s 5s 11 13 mph 1025.2mb 62f 61f
3:50 3ft 8s 6s 13 16 mph 1025.5mb 62f 61f
2:50 3ft 8s 6s 11 16 mph 1025.8mb 63f 61f
1:50 3ft 8s 6s 9 11 mph 1025.8mb 63f 61f
12:50 3ft 14s 6s 9
mph
1025.8mb 62f 60f
11:50 3ft 8s 6s 9
mph
1025.9mb 61f 61f
10:50 3ft 15s 6s 7 9 mph 1026.1mb 61f 60f
9:50 3ft 8s 6s 11 13 mph 1025.8mb 61f 59f
8:50 3ft 9s  -  7
mph
1025.7mb 61f 60f
7:50 3ft 15s 6s 11 13 mph 1025.4mb 61f 60f
6:50 3.5ft 8s 6s 9 13 mph 1025.2mb 61f 60f
5:50 3.5ft 14s 5s 11 13 mph 1024.8mb 61f 60f
4:50 3.5ft 8s 5s 13 18 mph 1024.8mb 62f 60f
3:50 3.5ft 8s 6s 11 13 mph 1025mb 62f 60f
2:50 3.5ft 15s 6s 9 11 mph 1025mb 62f 61f
1:50 3.5ft 8s 6s 9 11 mph 1025.4mb 63f 60f
12:50 3ft 8s 6s 9 11 mph 1025.8mb 63f 60f
ven. 07/22 11:50 3ft 15s 6s 4 7 mph 1026.2mb 63f 60f
10:50 3ft 8s 6s 7 9 mph 1026.3mb 63f 60f
9:50 3ft 8s 6s 11 13 mph 1026.2mb 63f 60f
8:50 3ft 15s 6s 7
mph
1026mb 63f 60f
7:50 3ft 8s 6s 9 11 mph 1026mb 63f 60f
6:50 3.5ft 15s 6s 9 11 mph 1026mb 64f 61f
5:50 3ft 8s 6s 9 11 mph 1026mb 64f 62f
4:50 3.5ft 8s 6s 7 9 mph 1026mb 64f 62f
3:50 3.5ft 8s 6s 9 11 mph 1026.1mb 64f 61f
2:50 3.5ft 8s 6s 7 9 mph 1026.1mb 63f 61f
1:50 3.5ft 8s 6s 4
mph
1026mb 63f 61f
12:50 4ft 8s 6s 9 11 mph 1025.7mb 62f 61f
11:50 3.5ft 8s 6s 7
mph
1025.3mb 62f 61f
10:50 3.5ft 8s 6s 4 7 mph 1024.7mb 62f 61f
9:50 3.5ft 9s 6s 4 7 mph 1024.6mb 61f 60f
8:50 3.5ft 8s 6s 4
mph
1024.4mb 61f 60f
7:50 3.5ft 8s 5s 13 16 mph 1023.9mb 61f 59f
6:50 3.5ft 8s 6s 11 13 mph 1023.2mb 61f 61f
5:50 3.5ft 8s 6s 9 11 mph 1022.6mb 61f 61f
4:50 3.5ft 9s 6s 9 13 mph 1021.9mb 61f 62f
3:50 3.5ft 8s 6s 7 9 mph 1021.8mb 61f 61f
2:50 3.5ft 8s 6s 9 11 mph 1021.6mb 61f 61f
1:50 3.5ft 8s 6s 11 13 mph 1021.4mb 61f 61f
12:50 3.5ft 8s 6s 11 13 mph 1021.3mb 61f 61f
jeu. 07/21 11:50 3.5ft 8s 6s 9 13 mph 1021.2mb 61f 61f
10:50 3.5ft 8s 6s 7 9 mph 1021.3mb 61f 62f
9:50 3.5ft 8s 6s 16 18 mph 1020.2mb 61f 62f
8:50 3.5ft 8s 6s 9 11 mph 1020.2mb 61f 62f
7:50 3.5ft 9s 6s 11 13 mph 1019.7mb 62f 62f
6:50 3.5ft 8s 5s 11 16 mph 1019.3mb 62f 62f
5:50 3.5ft 8s 5s 13 18 mph 1018.9mb 62f 62f
4:50 4ft 8s 5s 16 20 mph 1018.6mb 62f 62f
3:50 3.5ft 8s 5s 16 18 mph 1018.5mb 62f 61f
2:50 3.5ft 8s 6s 13 16 mph 1018.3mb 61f 61f
1:50 3ft 8s 5s 13 16 mph 1018.4mb 61f 60f
12:50 3.5ft 9s 6s 11 13 mph 1018.7mb 61f 60f
11:50 4ft 9s 7s 13 16 mph 1018.6mb 61f 60f
10:50 4ft 8s 6s 13 16 mph 1018.4mb 61f 59f
9:50 3.5ft 9s 6s 11 13 mph 1018.5mb 61f 59f
8:50 3.5ft 8s 7s 11 13 mph 1018.6mb 61f 59f
7:50 3.5ft 9s 7s 11 16 mph 1018.6mb 61f 59f
6:50 3.5ft 9s 7s 9 13 mph 1018.5mb 61f 59f
5:50 3.5ft 8s 6s 11 13 mph 1018.2mb 61f 59f
4:50 3.5ft 9s 6s 13 16 mph 1018.2mb 61f 59f
3:50 3.5ft 8s 7s 11 16 mph 1018.2mb 61f 60f
2:50 3.5ft 8s 8s 11 13 mph 1018.3mb 61f 60f
1:50 3.5ft 9s 7s 9 11 mph 1018.5mb 62f 60f
12:50 3.5ft 9s 8s 9 11 mph 1018.4mb 62f 60f
mer. 07/20 11:50 3.5ft 8s 7s 9 11 mph 1018.7mb 62f 61f
10:50 3.5ft 8s 7s 9 11 mph 1019mb 62f 61f
9:50 3.5ft 10s 8s 9
mph
1019.1mb 62f 61f
8:50 3.5ft 8s 8s 9
mph
1019.2mb 63f 62f
7:50 3ft 8s 7s 7 9 mph 1019.5mb 63f 62f
6:50 3ft 8s 7s 7
mph
1019.7mb 64f 63f
5:50 3ft 10s 8s 7
mph
1020.2mb 64f 63f
4:50 3.5ft 10s 7s 7
mph
1020.4mb 64f 62f
3:50 3.5ft 7s 7s 4 7 mph 1020.6mb 64f 63f
2:50 3.5ft 8s 7s 2 4 mph 1020.7mb 63f 62f
1:50 3ft 11s 7s 2 4 mph 1021mb 63f 63f
12:50 3ft 11s 7s  -  2 mph 1021.1mb 62f 63f
11:50 3.5ft 11s 7s 4
mph
1021.1mb 61f 62f
10:50 3.5ft 11s 7s 4 7 mph 1020.9mb 61f 61f
9:50 3.5ft 8s 7s 7 9 mph 1020.6mb 61f 60f
8:50 3.5ft 11s 6s 7 9 mph 1020.5mb 61f 60f
7:50 3ft 11s 7s 9 11 mph 1020.1mb 61f 60f
6:50 3ft 7s 7s 9 11 mph 1019.9mb 61f 60f
5:50 3ft 7s 6s 4 7 mph 1019.7mb 61f 60f